Time;durP1;ratioP1;P1;durP2;ratioP2;P2;SDS_P1;SDS_P2;PMS_P1;PMS_P2;Temp;Humidity;BMP_temperature;BMP_pressure;BME280_temperature;BME280_humidity;BME280_pressure;Samples;Min_cycle;Max_cycle;Signal;HPM_P1;HPM_P2
2021/09/11 00:00:58;;;;;;;838.07;599.00;;;20.90;97.40;;;;;;5053394;28;20581;-69
2021/09/11 00:03:25;;;;;;;797.97;540.93;;;21.00;96.90;;;;;;5053636;28;20437;-68
2021/09/11 00:05:53;;;;;;;753.10;487.07;;;21.20;96.50;;;;;;5053487;28;20512;-69
2021/09/11 00:08:20;;;;;;;800.33;541.03;;;21.20;96.10;;;;;;5048627;28;20480;-69
2021/09/11 00:10:47;;;;;;;751.83;488.47;;;21.30;95.70;;;;;;5050127;28;20449;-69
2021/09/11 00:13:15;;;;;;;1104.60;725.47;;;21.50;96.00;;;;;;5053876;28;20915;-68
2021/09/11 00:15:45;;;;;;;796.00;482.67;;;21.80;95.50;;;;;;5048371;28;20412;-68
2021/09/11 00:18:12;;;;;;;1159.37;858.73;;;22.00;94.90;;;;;;5053884;28;20794;-68
2021/09/11 00:20:40;;;;;;;1164.10;848.93;;;22.10;94.30;;;;;;5052708;28;20416;-70
2021/09/11 00:23:11;;;;;;;1199.87;891.60;;;22.20;93.90;;;;;;5054228;28;20483;-69
2021/09/11 00:25:43;;;;;;;891.77;655.27;;;22.30;93.70;;;;;;5053328;28;20505;-69
2021/09/11 00:28:11;;;;;;;1192.63;882.33;;;22.50;92.70;;;;;;5035688;28;20479;-70
2021/09/11 00:30:38;;;;;;;863.47;615.93;;;22.60;92.40;;;;;;5060227;28;20436;-69
2021/09/11 00:33:05;;;;;;;824.80;584.77;;;22.80;92.20;;;;;;5051772;28;20195;-71
2021/09/11 00:35:33;;;;;;;819.10;603.90;;;23.00;91.20;;;;;;5059026;28;20674;-69
2021/09/11 00:38:00;;;;;;;1157.23;875.47;;;23.20;91.00;;;;;;5053445;28;20460;-70
2021/09/11 00:40:27;;;;;;;1113.53;873.77;;;23.30;90.20;;;;;;5050503;28;20443;-68
2021/09/11 00:42:55;;;;;;;1158.30;887.57;;;23.60;89.10;;;;;;5055008;28;20779;-68
2021/09/11 00:45:24;;;;;;;1211.10;900.77;;;23.80;84.20;;;;;;5052830;28;20180;-68
2021/09/11 00:47:52;;;;;;;1228.87;911.60;;;23.80;83.90;;;;;;5053234;28;20469;-70
2021/09/11 00:50:20;;;;;;;1231.03;911.20;;;24.10;82.70;;;;;;5052666;28;20417;-70
2021/09/11 00:52:49;;;;;;;1092.03;887.00;;;24.30;81.30;;;;;;5050926;28;20443;-70
2021/09/11 00:55:17;;;;;;;1056.37;877.80;;;24.30;81.00;;;;;;5042731;28;20176;-70
2021/09/11 00:57:46;;;;;;;791.47;617.37;;;24.60;78.30;;;;;;5051358;28;20184;-69
2021/09/11 01:00:14;;;;;;;1091.23;894.27;;;24.70;76.90;;;;;;5052105;28;20191;-69
2021/09/11 01:02:42;;;;;;;1110.93;905.10;;;24.90;76.10;;;;;;5052401;28;20903;-71
2021/09/11 01:05:11;;;;;;;1134.13;912.27;;;25.10;74.80;;;;;;5052845;28;20180;-70
2021/09/11 01:07:40;;;;;;;1134.90;914.43;;;25.40;72.70;;;;;;5052993;28;20195;-69
2021/09/11 01:10:11;;;;;;;1147.53;920.90;;;25.70;70.60;;;;;;5052814;28;20203;-68
2021/09/11 01:12:39;;;;;;;1145.50;930.33;;;25.90;67.30;;;;;;5052911;28;20242;-70
2021/09/11 01:15:09;;;;;;;1130.80;928.47;;;26.10;65.80;;;;;;5052179;28;20180;-70
2021/09/11 01:17:38;;;;;;;1135.97;931.60;;;26.30;62.60;;;;;;5052941;28;20275;-67
2021/09/11 01:20:07;;;;;;;1125.93;928.87;;;26.40;59.00;;;;;;5062800;28;20183;-70
2021/09/11 01:22:34;;;;;;;781.90;618.53;;;26.50;58.30;;;;;;5053137;28;20184;-72
2021/09/11 01:25:07;;;;;;;1116.57;936.87;;;26.50;57.60;;;;;;5049080;28;20518;-70
2021/09/11 01:27:35;;;;;;;1152.60;939.97;;;26.60;56.70;;;;;;5046406;28;21000;-70
2021/09/11 01:30:06;;;;;;;1165.00;943.70;;;26.70;56.80;;;;;;5044506;28;20688;-69
2021/09/11 01:32:34;;;;;;;1181.00;945.10;;;26.90;56.30;;;;;;5043060;28;20210;-69
2021/09/11 01:35:01;;;;;;;1175.10;937.63;;;26.80;54.90;;;;;;5052039;28;20730;-67
2021/09/11 01:37:29;;;;;;;1200.00;948.00;;;26.90;55.10;;;;;;5053008;28;20176;-70
2021/09/11 01:39:56;;;;;;;1204.30;944.23;;;26.90;55.70;;;;;;5048066;28;20187;-68
2021/09/11 01:42:26;;;;;;;1165.47;949.67;;;27.00;55.20;;;;;;5048629;28;20176;-70
2021/09/11 01:45:03;;;;;;;1163.67;947.87;;;27.10;55.00;;;;;;5047364;28;20188;-69
2021/09/11 01:47:30;;;;;;;762.87;640.13;;;27.10;55.70;;;;;;5051526;28;20618;-70
2021/09/11 01:49:57;;;;;;;1124.73;943.93;;;27.30;55.40;;;;;;5051900;28;20184;-70
2021/09/11 01:52:26;;;;;;;1150.40;943.17;;;27.20;54.50;;;;;;5050175;28;20171;-69
2021/09/11 01:54:53;;;;;;;1162.47;950.87;;;27.20;55.50;;;;;;5049746;28;20230;-72
2021/09/11 01:57:20;;;;;;;1165.37;953.37;;;27.50;54.10;;;;;;5050016;28;20605;-71
2021/09/11 01:59:48;;;;;;;1150.60;966.23;;;27.80;55.30;;;;;;5051745;28;20180;-69
2021/09/11 02:02:15;;;;;;;1203.47;955.30;;;28.10;56.10;;;;;;5045753;28;20306;-71
2021/09/11 02:04:43;;;;;;;1142.27;957.57;;;28.20;55.80;;;;;;5051342;28;20593;-69
2021/09/11 02:07:10;;;;;;;1103.50;955.73;;;28.40;54.70;;;;;;5051527;28;20223;-69
2021/09/11 02:09:38;;;;;;;1103.30;952.80;;;28.40;52.00;;;;;;5053312;28;20226;-73
2021/09/11 02:12:08;;;;;;;1147.10;965.80;;;28.20;51.30;;;;;;5052505;28;20658;-71
2021/09/11 02:14:35;;;;;;;1172.60;972.13;;;28.20;52.30;;;;;;5051642;28;20226;-69
2021/09/11 02:17:04;;;;;;;1165.47;976.90;;;28.60;51.00;;;;;;5057141;28;20187;-68
2021/09/11 02:19:32;;;;;;;1158.87;976.57;;;28.70;50.60;;;;;;5053341;28;20298;-69
2021/09/11 02:22:04;;;;;;;1160.77;961.30;;;28.70;51.00;;;;;;5037457;28;20181;-69
2021/09/11 02:24:31;;;;;;;1102.17;955.57;;;28.90;50.10;;;;;;5050339;28;20188;-69
2021/09/11 02:26:59;;;;;;;1106.07;960.97;;;29.10;50.60;;;;;;5054805;28;20286;-71
2021/09/11 02:29:26;;;;;;;811.93;668.07;;;29.00;50.60;;;;;;5056165;28;20732;-70
2021/09/11 02:31:54;;;;;;;1145.73;979.97;;;28.80;49.90;;;;;;5056163;28;20191;-69
2021/09/11 02:34:21;;;;;;;1110.53;973.50;;;28.80;48.80;;;;;;5046730;28;20189;-71
2021/09/11 02:36:49;;;;;;;1108.47;972.30;;;29.00;48.60;;;;;;5050272;28;20713;-69
2021/09/11 02:39:16;;;;;;;1104.00;977.13;;;29.30;48.70;;;;;;5056060;28;20222;-71
2021/09/11 02:41:44;;;;;;;1124.23;984.80;;;29.60;47.80;;;;;;5056115;28;20271;-69
2021/09/11 02:44:11;;;;;;;1118.67;977.17;;;29.80;48.10;;;;;;5056575;28;20638;-69
2021/09/11 02:46:39;;;;;;;1148.17;988.73;;;29.60;46.80;;;;;;5055780;28;20211;-70
2021/09/11 02:49:06;;;;;;;1143.67;986.47;;;29.40;47.60;;;;;;5056044;28;20199;-71
2021/09/11 02:51:34;;;;;;;1159.77;999.73;;;29.50;47.40;;;;;;5051873;28;20179;-70
2021/09/11 02:54:01;;;;;;;1174.37;992.27;;;29.90;46.40;;;;;;5043129;28;20188;-67
2021/09/11 02:56:29;;;;;;;1181.67;994.27;;;29.80;45.90;;;;;;5056002;28;20168;-69
2021/09/11 02:58:56;;;;;;;1195.03;997.80;;;29.80;46.60;;;;;;5049326;28;20178;-69
2021/09/11 03:01:24;;;;;;;1163.33;990.30;;;30.20;45.20;;;;;;5055739;28;20234;-69
2021/09/11 03:03:52;;;;;;;1152.13;997.17;;;30.60;46.00;;;;;;5055259;28;20582;-67
2021/09/11 03:06:19;;;;;;;1158.67;999.90;;;30.50;45.60;;;;;;5055206;28;20631;-68
2021/09/11 03:08:47;;;;;;;1160.77;998.47;;;30.10;45.40;;;;;;5054786;28;20302;-68
2021/09/11 03:11:14;;;;;;;1164.93;999.90;;;30.30;46.30;;;;;;5054152;28;20267;-70
2021/09/11 03:13:42;;;;;;;1167.10;999.90;;;30.50;45.60;;;;;;5035577;28;20184;-70
2021/09/11 03:16:10;;;;;;;1182.17;999.90;;;30.50;46.20;;;;;;5047248;28;20523;-68
2021/09/11 03:18:37;;;;;;;1174.83;999.90;;;30.70;46.40;;;;;;5055388;28;20271;-68
2021/09/11 03:21:05;;;;;;;1184.23;999.90;;;30.90;44.60;;;;;;5055718;28;20214;-68
2021/09/11 03:23:33;;;;;;;1163.93;999.90;;;31.00;44.90;;;;;;5054561;28;20183;-67
2021/09/11 03:26:00;;;;;;;1135.10;999.30;;;30.60;44.50;;;;;;5055390;28;20259;-69
2021/09/11 03:28:28;;;;;;;1119.80;995.57;;;30.50;45.30;;;;;;5054875;28;20212;-67
2021/09/11 03:30:56;;;;;;;1120.70;996.80;;;30.50;45.90;;;;;;5054995;28;20172;-74
2021/09/11 03:33:23;;;;;;;1102.73;982.53;;;30.60;45.30;;;;;;5055512;28;20259;-69
2021/09/11 03:35:50;;;;;;;1088.77;969.87;;;30.50;44.90;;;;;;5055113;28;20172;-70
2021/09/11 03:38:18;;;;;;;1100.43;980.23;;;30.40;45.50;;;;;;5054092;28;20194;-68
2021/09/11 03:40:45;;;;;;;1104.63;984.33;;;30.40;45.30;;;;;;5054417;28;20187;-68
2021/09/11 03:43:12;;;;;;;1107.97;987.23;;;30.40;45.40;;;;;;5055180;28;20170;-70
2021/09/11 03:45:40;;;;;;;1096.00;976.80;;;30.60;45.50;;;;;;5054881;28;20226;-71
2021/09/11 03:48:08;;;;;;;1092.10;973.10;;;30.80;44.80;;;;;;5051325;28;20228;-70
2021/09/11 03:50:35;;;;;;;1113.20;991.90;;;30.90;45.20;;;;;;5054796;28;20536;-69
2021/09/11 03:53:02;;;;;;;1104.47;983.83;;;30.90;44.30;;;;;;5054557;28;20574;-68
2021/09/11 03:55:30;;;;;;;1107.90;987.27;;;30.50;44.50;;;;;;5053352;28;20191;-69
2021/09/11 03:57:57;;;;;;;1114.03;992.40;;;30.90;44.80;;;;;;5054552;28;20186;-70
2021/09/11 04:00:25;;;;;;;1099.27;979.80;;;31.30;44.60;;;;;;5054688;28;20543;-74
2021/09/11 04:02:52;;;;;;;1097.50;978.07;;;31.40;44.60;;;;;;5054467;28;20350;-69
2021/09/11 04:05:19;;;;;;;1101.37;981.97;;;31.50;44.40;;;;;;5054396;28;20328;-69
2021/09/11 04:07:46;;;;;;;1101.07;981.73;;;30.90;44.30;;;;;;5054455;28;20258;-72
2021/09/11 04:10:14;;;;;;;1088.67;970.07;;;30.50;44.30;;;;;;5054318;28;20275;-69
2021/09/11 04:12:41;;;;;;;1099.03;979.83;;;30.60;44.70;;;;;;5054328;28;20233;-70
2021/09/11 04:15:09;;;;;;;1092.43;973.40;;;30.90;44.70;;;;;;5054669;28;20590;-73
2021/09/11 04:17:36;;;;;;;1097.93;978.63;;;31.40;44.50;;;;;;5054394;28;20643;-69
2021/09/11 04:20:04;;;;;;;1119.43;996.77;;;31.70;45.10;;;;;;5054398;28;20176;-69
2021/09/11 04:22:31;;;;;;;1110.30;990.10;;;31.90;44.40;;;;;;5038115;28;20187;-67
2021/09/11 04:24:59;;;;;;;1122.13;998.10;;;32.40;44.50;;;;;;5050262;28;20233;-72
2021/09/11 04:27:26;;;;;;;1120.27;997.70;;;32.40;44.00;;;;;;5054156;28;20628;-74
2021/09/11 04:29:53;;;;;;;1122.70;998.03;;;32.10;43.60;;;;;;5054299;28;20172;-68
2021/09/11 04:32:21;;;;;;;1130.70;999.90;;;32.40;44.00;;;;;;5054087;28;20180;-72
2021/09/11 04:34:48;;;;;;;1144.97;999.90;;;32.80;43.60;;;;;;5046963;28;20179;-69
2021/09/11 04:37:15;;;;;;;1139.23;999.90;;;33.00;43.70;;;;;;5050746;28;20210;-72
2021/09/11 04:39:43;;;;;;;1142.17;999.90;;;32.70;43.70;;;;;;5049629;28;20555;-69
2021/09/11 04:42:10;;;;;;;1135.80;999.90;;;32.70;44.00;;;;;;5049220;28;20175;-72
2021/09/11 04:44:37;;;;;;;1142.50;999.90;;;33.30;43.10;;;;;;5052663;28;20664;-68
2021/09/11 04:47:05;;;;;;;1139.30;999.90;;;33.10;41.80;;;;;;5053144;28;20612;-69
2021/09/11 04:49:32;;;;;;;1143.23;999.90;;;33.20;42.10;;;;;;5053416;28;20191;-68
2021/09/11 04:52:00;;;;;;;1144.87;999.90;;;32.80;42.20;;;;;;5053262;28;20187;-72
2021/09/11 04:54:27;;;;;;;1147.93;999.90;;;32.80;42.80;;;;;;5054828;28;20646;-67
2021/09/11 04:56:54;;;;;;;1149.87;999.90;;;32.90;42.90;;;;;;5052821;28;20180;-69
2021/09/11 04:59:22;;;;;;;1147.10;999.90;;;33.60;42.40;;;;;;5053824;28;20257;-67
2021/09/11 05:01:49;;;;;;;1146.77;999.90;;;33.80;42.60;;;;;;5052999;28;20250;-67
2021/09/11 05:04:16;;;;;;;1148.33;999.90;;;34.00;42.30;;;;;;5051229;28;20191;-68
2021/09/11 05:06:44;;;;;;;1163.93;999.90;;;34.00;41.90;;;;;;5053403;28;20249;-68
2021/09/11 05:09:11;;;;;;;1166.03;999.90;;;34.30;42.20;;;;;;5052585;28;20188;-69
2021/09/11 05:11:39;;;;;;;1172.63;999.90;;;34.20;39.40;;;;;;5066719;28;20588;-68
2021/09/11 05:14:06;;;;;;;1169.83;999.90;;;34.30;39.20;;;;;;5053344;28;20286;-71
2021/09/11 05:16:33;;;;;;;1159.37;999.90;;;33.90;37.70;;;;;;5052644;28;20570;-70
2021/09/11 05:19:01;;;;;;;1150.53;999.90;;;33.60;37.30;;;;;;5052268;28;20188;-75
2021/09/11 05:21:28;;;;;;;1153.23;999.90;;;33.70;37.40;;;;;;5052917;28;20195;-70
2021/09/11 05:23:56;;;;;;;1162.30;999.90;;;33.70;37.50;;;;;;5051000;28;20195;-71
2021/09/11 05:26:23;;;;;;;1153.13;999.90;;;33.90;37.80;;;;;;5051139;28;20237;-71
2021/09/11 05:28:50;;;;;;;1166.83;999.90;;;34.30;37.40;;;;;;5049479;28;20333;-69
2021/09/11 05:31:18;;;;;;;1170.03;999.90;;;34.50;37.90;;;;;;5052417;28;20543;-70
2021/09/11 05:33:45;;;;;;;1167.00;999.90;;;34.50;39.20;;;;;;5052649;28;20203;-73
2021/09/11 05:36:12;;;;;;;1157.13;999.90;;;34.50;39.10;;;;;;5051647;28;20647;-72
2021/09/11 05:38:40;;;;;;;1169.07;999.90;;;34.50;38.70;;;;;;5049366;28;20257;-70
2021/09/11 05:41:07;;;;;;;1155.77;999.90;;;34.60;38.10;;;;;;5048232;28;20266;-71
2021/09/11 05:43:34;;;;;;;1166.37;999.90;;;34.20;38.20;;;;;;5052593;28;20195;-71
2021/09/11 05:46:02;;;;;;;1178.23;999.90;;;34.10;38.60;;;;;;5052544;28;20180;-70
2021/09/11 05:48:29;;;;;;;1168.93;999.90;;;34.30;36.90;;;;;;5052121;28;20298;-70
2021/09/11 05:50:56;;;;;;;1170.50;999.90;;;34.70;36.70;;;;;;5048309;28;20172;-72
2021/09/11 05:53:24;;;;;;;1180.73;999.90;;;34.30;36.70;;;;;;5041392;28;20189;-72
2021/09/11 05:55:51;;;;;;;1163.63;999.90;;;34.30;36.80;;;;;;5051752;28;20183;-69
2021/09/11 05:58:20;;;;;;;1168.10;999.90;;;34.20;36.60;;;;;;5059355;28;20175;-70
2021/09/11 06:00:47;;;;;;;1166.67;999.90;;;33.80;37.00;;;;;;5051525;28;20179;-71
2021/09/11 06:03:15;;;;;;;1160.73;999.90;;;33.70;37.20;;;;;;5051960;28;20243;-70
2021/09/11 06:05:42;;;;;;;1155.03;999.90;;;33.90;37.00;;;;;;5051143;28;20266;-71
2021/09/11 06:08:09;;;;;;;1152.40;999.90;;;33.80;38.00;;;;;;5052282;28;20212;-68
2021/09/11 06:10:37;;;;;;;1153.60;999.90;;;33.20;37.00;;;;;;5050254;28;20175;-70
2021/09/11 06:13:04;;;;;;;1156.17;999.90;;;32.90;36.80;;;;;;5052300;28;20179;-70
2021/09/11 06:15:32;;;;;;;1144.40;999.90;;;32.80;37.10;;;;;;5051553;28;20627;-72
2021/09/11 06:17:59;;;;;;;1162.73;999.90;;;33.20;37.60;;;;;;5051823;28;20720;-69
2021/09/11 06:20:26;;;;;;;1166.30;999.90;;;33.40;37.10;;;;;;5049470;28;20694;-70
2021/09/11 06:22:54;;;;;;;1159.87;999.90;;;33.10;37.10;;;;;;5051482;28;20175;-68
2021/09/11 06:25:21;;;;;;;1165.23;999.90;;;33.00;37.10;;;;;;5048693;28;20179;-70
2021/09/11 06:27:54;;;;;;;1217.70;999.90;;;33.00;37.10;;;;;;5043107;28;20215;-69
2021/09/11 06:30:23;;;;;;;1243.83;999.90;;;33.10;37.30;;;;;;5049699;28;20670;-69
2021/09/11 06:32:51;;;;;;;1218.23;999.90;;;32.60;37.30;;;;;;5051892;28;20219;-68
2021/09/11 06:35:18;;;;;;;1249.80;999.90;;;32.60;37.20;;;;;;5051773;28;20271;-66
2021/09/11 06:37:46;;;;;;;1303.40;999.90;;;32.50;37.80;;;;;;5054303;28;20184;-70
2021/09/11 06:40:13;;;;;;;1267.67;999.90;;;32.70;37.70;;;;;;5060760;28;20191;-66
2021/09/11 06:42:40;;;;;;;1176.30;999.90;;;32.50;37.90;;;;;;5042305;28;20271;-67
2021/09/11 06:45:08;;;;;;;1232.33;999.90;;;32.90;38.10;;;;;;5051540;28;20270;-68
2021/09/11 06:47:36;;;;;;;1253.43;999.90;;;32.60;38.50;;;;;;5050995;28;20210;-66
2021/09/11 06:50:03;;;;;;;1316.53;999.90;;;32.10;38.30;;;;;;5042252;28;20210;-67
2021/09/11 06:52:31;;;;;;;1309.57;999.90;;;32.10;37.00;;;;;;5049865;28;20592;-70
2021/09/11 06:54:59;;;;;;;1311.63;999.90;;;32.00;37.30;;;;;;5047949;28;20188;-70
2021/09/11 06:57:26;;;;;;;1291.37;997.67;;;32.10;37.30;;;;;;5048967;28;20196;-69
2021/09/11 06:59:53;;;;;;;1306.43;999.90;;;31.90;37.00;;;;;;5050780;28;20271;-71
2021/09/11 07:02:21;;;;;;;1168.37;999.90;;;32.00;37.50;;;;;;5049434;28;20574;-68
2021/09/11 07:04:48;;;;;;;1185.50;999.90;;;31.70;37.10;;;;;;5050135;28;20180;-70
2021/09/11 07:07:15;;;;;;;1175.93;999.90;;;31.30;37.10;;;;;;5049434;28;20219;-68
2021/09/11 07:09:42;;;;;;;1215.57;999.90;;;31.00;36.80;;;;;;5049720;28;20282;-69
2021/09/11 07:12:10;;;;;;;1256.13;999.90;;;30.40;37.70;;;;;;5051776;28;20184;-67
2021/09/11 07:14:37;;;;;;;1163.83;999.40;;;30.30;38.10;;;;;;5053862;28;20188;-67
2021/09/11 07:17:04;;;;;;;1125.03;998.43;;;30.30;37.90;;;;;;5054891;28;20611;-70
2021/09/11 07:19:32;;;;;;;1100.37;980.73;;;30.00;38.00;;;;;;5055331;28;20187;-68
2021/09/11 07:21:59;;;;;;;1098.10;977.77;;;29.50;38.20;;;;;;5055367;28;20274;-69
2021/09/11 07:24:26;;;;;;;1106.83;985.00;;;28.90;38.70;;;;;;5053841;28;20172;-69
2021/09/11 07:26:54;;;;;;;1101.63;978.70;;;28.60;39.20;;;;;;5055014;28;20191;-69
2021/09/11 07:29:21;;;;;;;1098.83;971.33;;;28.30;39.60;;;;;;5054797;28;20210;-66
2021/09/11 07:31:48;;;;;;;1116.30;981.33;;;28.10;39.80;;;;;;5054565;28;20176;-69
2021/09/11 07:34:16;;;;;;;1103.07;972.80;;;27.80;40.20;;;;;;5054084;28;20213;-69
2021/09/11 07:36:43;;;;;;;1112.47;977.20;;;27.60;40.50;;;;;;5054156;28;20193;-66
2021/09/11 07:39:10;;;;;;;1114.60;976.17;;;27.30;40.70;;;;;;5054733;28;20742;-67
2021/09/11 07:41:38;;;;;;;1137.23;970.23;;;27.20;40.90;;;;;;5054219;28;20271;-66
2021/09/11 07:44:05;;;;;;;1152.73;978.27;;;27.00;40.90;;;;;;5054688;28;20179;-69
2021/09/11 07:46:33;;;;;;;1134.97;969.73;;;26.80;41.50;;;;;;5054306;28;20180;-67
2021/09/11 07:49:00;;;;;;;1127.07;964.73;;;26.60;41.50;;;;;;5054344;28;20219;-65
2021/09/11 07:51:27;;;;;;;1143.97;963.27;;;26.50;41.30;;;;;;5054733;28;20270;-70
2021/09/11 07:53:54;;;;;;;1156.80;960.23;;;26.40;41.70;;;;;;5053730;28;20259;-70
2021/09/11 07:56:22;;;;;;;1171.03;951.40;;;26.30;42.00;;;;;;5048683;28;20195;-70
2021/09/11 07:58:50;;;;;;;1188.00;947.67;;;26.10;43.10;;;;;;5055299;28;20200;-69
2021/09/11 08:01:17;;;;;;;1193.37;943.17;;;26.00;42.60;;;;;;5070485;28;20221;-70
2021/09/11 08:03:44;;;;;;;1257.77;948.77;;;25.90;42.90;;;;;;5068073;28;20187;-70
2021/09/11 08:06:12;;;;;;;1273.77;943.03;;;25.80;43.10;;;;;;5059772;28;20773;-70
2021/09/11 08:08:39;;;;;;;1234.20;934.47;;;25.70;43.40;;;;;;5064669;28;20249;-70
2021/09/11 08:11:07;;;;;;;1276.37;947.90;;;25.60;44.90;;;;;;5065915;28;20183;-71
2021/09/11 08:13:35;;;;;;;1296.70;953.60;;;25.50;44.20;;;;;;5066459;28;20550;-69
2021/09/11 08:16:03;;;;;;;1178.67;946.17;;;25.30;44.10;;;;;;5067902;28;20424;-70
2021/09/11 08:18:30;;;;;;;1169.03;944.13;;;25.20;44.10;;;;;;5061982;28;20191;-70
2021/09/11 08:20:57;;;;;;;1066.30;914.30;;;25.20;44.10;;;;;;5074329;28;20206;-69
2021/09/11 08:23:25;;;;;;;1062.70;910.60;;;25.20;43.20;;;;;;5073793;28;20591;-70
2021/09/11 08:25:53;;;;;;;1236.80;927.93;;;25.10;42.70;;;;;;5057452;28;20273;-69
2021/09/11 08:28:21;;;;;;;1277.17;943.83;;;25.10;42.80;;;;;;5073715;28;20215;-69
2021/09/11 08:30:48;;;;;;;1094.87;924.10;;;25.10;42.40;;;;;;5063897;28;20186;-68
2021/09/11 08:33:16;;;;;;;1080.67;914.00;;;25.10;42.10;;;;;;5062105;28;20187;-70
2021/09/11 08:35:44;;;;;;;1092.37;926.50;;;25.10;42.20;;;;;;5040522;28;20168;-69
2021/09/11 08:38:11;;;;;;;1110.13;927.90;;;25.10;42.60;;;;;;5056400;28;20176;-70
2021/09/11 08:40:41;;;;;;;1109.97;925.60;;;24.90;42.70;;;;;;5064207;28;20215;-70
2021/09/11 08:43:08;;;;;;;1129.57;926.40;;;24.80;43.40;;;;;;5065603;28;20202;-70
2021/09/11 08:45:35;;;;;;;1211.67;921.07;;;24.70;43.40;;;;;;5053250;28;20662;-70
2021/09/11 08:48:03;;;;;;;1242.90;924.40;;;24.60;43.50;;;;;;5051550;28;20821;-69
2021/09/11 08:50:30;;;;;;;841.27;631.80;;;24.60;44.10;;;;;;5043873;28;20718;-69
2021/09/11 08:52:58;;;;;;;1264.83;926.10;;;24.50;45.00;;;;;;5052811;28;20187;-66
2021/09/11 08:55:26;;;;;;;1258.90;914.87;;;24.40;44.30;;;;;;5043233;28;20208;-70
2021/09/11 08:58:20;;;;;;;1190.13;918.50;;;24.40;44.30;;;;;;5047299;28;20195;-69
2021/09/11 09:00:50;;;;;;;1239.53;919.43;;;24.30;44.50;;;;;;5051162;28;20675;-70
2021/09/11 09:03:44;;;;;;;1260.97;923.93;;;24.30;44.60;;;;;;5052488;28;20302;-66
2021/09/11 09:06:24;;;;;;;1239.50;916.33;;;24.30;44.70;;;;;;5047725;28;20214;-69
2021/09/11 09:09:12;;;;;;;1196.87;847.67;;;24.20;45.00;;;;;;5052886;28;20470;-69
2021/09/11 09:11:44;;;;;;;1138.77;687.83;;;24.10;45.20;;;;;;5047656;28;20416;-69
2021/09/11 09:14:15;;;;;;;1196.80;841.47;;;23.90;45.50;;;;;;5053718;28;20444;-66
2021/09/11 09:16:45;;;;;;;1258.57;917.73;;;23.80;45.80;;;;;;5052381;28;20421;-68
2021/09/11 09:19:20;;;;;;;1271.67;931.50;;;23.60;46.20;;;;;;5047642;28;20585;-68
2021/09/11 09:21:51;;;;;;;1232.93;921.20;;;23.60;46.10;;;;;;5047608;28;20808;-68
2021/09/11 09:24:36;;;;;;;1185.33;834.90;;;23.50;46.00;;;;;;5051245;28;20448;-66
2021/09/11 09:27:06;;;;;;;794.63;513.97;;;23.40;46.60;;;;;;5050578;28;20421;-67
2021/09/11 09:29:41;;;;;;;1209.37;856.37;;;23.40;46.90;;;;;;5052480;28;20245;-66
2021/09/11 09:32:08;;;;;;;1223.60;882.23;;;23.30;47.10;;;;;;5052087;28;20432;-66
2021/09/11 09:34:46;;;;;;;1115.90;629.00;;;23.20;47.10;;;;;;5044342;28;20465;-69
2021/09/11 09:37:20;;;;;;;771.97;283.47;;;23.10;47.10;;;;;;5047199;28;20437;-67
2021/09/11 09:39:49;;;;;;;1121.63;604.10;;;23.10;47.00;;;;;;5048933;28;20176;-65
2021/09/11 09:42:18;;;;;;;1110.00;587.97;;;23.10;47.10;;;;;;5042720;28;20479;-69
2021/09/11 09:44:50;;;;;;;1093.77;387.90;;;23.10;47.00;;;;;;5044692;28;20437;-69
2021/09/11 09:47:20;;;;;;;1094.70;416.33;;;23.10;47.00;;;;;;5042935;28;20460;-66
2021/09/11 09:50:07;;;;;;;1086.23;350.73;;;23.00;47.50;;;;;;5050684;28;20452;-66
2021/09/11 09:52:35;;;;;;;772.67;244.67;;;23.00;47.20;;;;;;5052367;28;20777;-66
2021/09/11 09:55:04;;;;;;;1073.90;340.63;;;23.00;47.20;;;;;;5051297;28;20187;-65
2021/09/11 09:57:32;;;;;;;1087.03;354.50;;;23.00;47.30;;;;;;5052296;28;20431;-66
2021/09/11 10:00:00;;;;;;;764.27;236.80;;;22.90;47.30;;;;;;5053465;28;20795;-68
2021/09/11 10:02:28;;;;;;;1070.30;337.97;;;22.90;47.40;;;;;;5063960;28;21000;-65
2021/09/11 10:04:56;;;;;;;1076.10;340.87;;;22.80;47.60;;;;;;5044750;28;20429;-67
2021/09/11 10:07:33;;;;;;;1062.73;344.63;;;22.80;48.40;;;;;;5058492;28;20452;-68
2021/09/11 10:10:01;;;;;;;774.17;244.30;;;22.60;49.00;;;;;;5051102;28;20486;-68
2021/09/11 10:12:39;;;;;;;1103.67;480.90;;;22.40;49.70;;;;;;5053581;28;20686;-68
2021/09/11 10:15:38;;;;;;;1078.50;349.97;;;22.30;50.20;;;;;;5071097;28;20454;-67
2021/09/11 10:18:31;;;;;;;1068.03;380.90;;;22.20;50.30;;;;;;5070651;28;20420;-68
2021/09/11 10:21:38;;;;;;;1080.40;337.97;;;22.10;51.10;;;;;;5066031;28;20424;-68
2021/09/11 10:24:14;;;;;;;762.10;234.03;;;22.00;51.70;;;;;;5056065;28;20437;-67
2021/09/11 10:26:47;;;;;;;733.97;235.63;;;21.80;52.10;;;;;;5058493;28;20427;-67
2021/09/11 10:29:33;;;;;;;507.97;160.37;;;21.80;52.60;;;;;;5072344;28;20913;-65
2021/09/11 10:32:13;;;;;;;1059.50;345.73;;;21.70;52.50;;;;;;5071059;28;20175;-65
2021/09/11 10:35:05;;;;;;;1032.90;343.93;;;21.60;53.10;;;;;;5067678;28;20423;-65
2021/09/11 10:37:43;;;;;;;502.43;160.37;;;21.50;53.00;;;;;;5054262;28;20532;-65
2021/09/11 10:40:31;;;;;;;1039.20;341.70;;;21.50;53.50;;;;;;5053130;28;20677;-69
2021/09/11 10:43:09;;;;;;;1037.87;347.83;;;21.40;53.80;;;;;;5051848;28;20527;-69
2021/09/11 10:45:43;;;;;;;749.40;234.03;;;21.30;53.70;;;;;;5052083;28;20774;-68
2021/09/11 10:48:47;;;;;;;1034.00;327.73;;;21.20;54.10;;;;;;5055462;28;20966;-68
2021/09/11 10:51:24;;;;;;;1033.97;333.23;;;21.20;53.80;;;;;;5054967;28;21181;-67
2021/09/11 10:54:14;;;;;;;729.67;222.90;;;21.20;54.00;;;;;;5043043;28;20416;-67
2021/09/11 10:56:59;;;;;;;702.97;221.20;;;21.20;54.40;;;;;;5053097;28;20945;-68
2021/09/11 10:59:31;;;;;;;9.20;4.57;;;21.10;54.30;;;;;;5048532;28;20187;-68
2021/09/11 11:02:23;;;;;;;714.70;220.07;;;21.10;53.90;;;;;;5054984;28;20346;-67
2021/09/11 11:04:50;;;;;;;1046.23;332.23;;;21.10;53.10;;;;;;5055591;28;20423;-68
2021/09/11 11:07:20;;;;;;;1029.77;333.80;;;21.00;54.10;;;;;;5055270;28;20557;-68
2021/09/11 11:09:53;;;;;;;10.87;7.43;;;21.00;54.50;;;;;;5054452;28;20428;-68
2021/09/11 11:12:22;;;;;;;746.23;232.57;;;21.00;53.60;;;;;;5052333;28;20183;-68
2021/09/11 11:14:50;;;;;;;741.80;234.10;;;20.90;54.00;;;;;;5048546;28;20423;-68
2021/09/11 11:17:19;;;;;;;752.07;230.37;;;20.90;53.80;;;;;;5055099;28;20521;-68
2021/09/11 11:19:50;;;;;;;738.43;222.03;;;20.90;53.30;;;;;;5055421;28;20826;-65
2021/09/11 11:22:39;;;;;;;1088.17;331.57;;;20.80;53.90;;;;;;5053830;28;20428;-67
2021/09/11 11:25:35;;;;;;;448.67;123.53;;;20.80;53.80;;;;;;5049007;28;20440;-67
2021/09/11 11:28:04;;;;;;;1069.87;325.03;;;20.60;55.10;;;;;;5054534;28;20216;-66
2021/09/11 11:30:31;;;;;;;1061.43;321.50;;;20.60;56.30;;;;;;5054392;28;20436;-67
2021/09/11 11:33:00;;;;;;;10.23;6.33;;;20.50;57.40;;;;;;5048099;28;21028;-65
2021/09/11 11:35:31;;;;;;;194.97;53.70;;;20.40;56.60;;;;;;5050049;28;20176;-66
2021/09/11 11:37:58;;;;;;;1063.43;327.97;;;20.40;56.40;;;;;;5054941;28;20675;-67
2021/09/11 11:40:27;;;;;;;759.37;223.80;;;20.30;57.30;;;;;;5053275;28;20478;-67
2021/09/11 11:43:00;;;;;;;1064.53;332.73;;;20.30;57.10;;;;;;5037570;28;20426;-68
2021/09/11 11:45:28;;;;;;;508.80;145.67;;;20.20;58.00;;;;;;5052083;28;20420;-65
2021/09/11 11:48:01;;;;;;;1073.27;326.57;;;20.10;59.60;;;;;;5053726;28;20238;-68
2021/09/11 11:50:32;;;;;;;761.13;222.43;;;20.10;60.20;;;;;;5054411;28;20429;-68
2021/09/11 11:53:19;;;;;;;757.50;220.00;;;20.00;61.00;;;;;;5054309;28;20425;-67
2021/09/11 11:55:52;;;;;;;752.73;223.93;;;19.90;61.10;;;;;;5042221;28;20795;-67
2021/09/11 11:58:27;;;;;;;25.33;7.40;;;19.80;60.80;;;;;;5050970;28;20436;-68
2021/09/11 12:00:56;;;;;;;433.87;118.33;;;19.90;60.50;;;;;;5053547;28;20189;-69
2021/09/11 12:03:43;;;;;;;703.90;201.90;;;20.10;58.40;;;;;;5042430;28;20243;-68
2021/09/11 12:06:25;;;;;;;1043.13;312.30;;;20.20;58.20;;;;;;5045676;28;20840;-68
2021/09/11 12:08:53;;;;;;;744.53;220.50;;;20.20;58.50;;;;;;5052885;28;20468;-67
2021/09/11 12:11:25;;;;;;;738.57;213.50;;;20.30;58.70;;;;;;5052980;28;20478;-68
2021/09/11 12:13:59;;;;;;;511.57;143.77;;;20.30;58.80;;;;;;5054475;28;20502;-68